createdAt,value
2023-01-13T00:01:26.337Z,2.52
2023-01-13T00:03:54.360Z,2.36
2023-01-13T00:06:27.943Z,2.43
2023-01-13T00:08:55.576Z,2.25
2023-01-13T00:11:22.983Z,2.45
2023-01-13T00:13:50.218Z,2.56
2023-01-13T00:16:19.489Z,2.51
2023-01-13T00:18:47.370Z,2.40
2023-01-13T00:21:19.112Z,2.50
2023-01-13T00:23:47.289Z,2.57
2023-01-13T00:26:20.661Z,2.48
2023-01-13T00:28:49.178Z,2.52
2023-01-13T00:31:21.173Z,2.76
2023-01-13T00:33:49.470Z,2.55
2023-01-13T00:36:19.482Z,2.39
2023-01-13T00:38:47.942Z,2.55
2023-01-13T00:41:18.501Z,2.59
2023-01-13T00:43:46.323Z,2.71
2023-01-13T00:46:20.358Z,2.38
2023-01-13T00:48:48.299Z,2.56
2023-01-13T00:51:18.877Z,2.61
2023-01-13T00:53:51.565Z,2.63
2023-01-13T00:56:38.416Z,2.49
2023-01-13T00:59:07.427Z,2.63
2023-01-13T01:01:35.184Z,2.63
2023-01-13T01:04:02.509Z,2.61
2023-01-13T01:06:30.067Z,2.61
2023-01-13T01:08:57.746Z,2.49
2023-01-13T01:11:32.627Z,2.51
2023-01-13T01:14:02.921Z,2.56
2023-01-13T01:16:31.831Z,2.59
2023-01-13T01:19:00.157Z,2.47
2023-01-13T01:21:28.968Z,2.61
2023-01-13T01:23:59.687Z,2.45
2023-01-13T01:26:29.028Z,2.69
2023-01-13T01:28:56.646Z,2.60
2023-01-13T01:31:33.903Z,2.59
2023-01-13T01:34:02.003Z,2.50
2023-01-13T01:36:32.125Z,2.61
2023-01-13T01:39:00.206Z,2.64
2023-01-13T01:41:32.093Z,2.49
2023-01-13T01:44:08.340Z,2.58
2023-01-13T01:46:42.489Z,2.64
2023-01-13T01:49:24.746Z,2.61
2023-01-13T01:52:00.843Z,2.66
2023-01-13T01:54:34.550Z,2.71
2023-01-13T01:57:02.423Z,2.64
2023-01-13T01:59:32.700Z,2.58
2023-01-13T02:02:00.366Z,2.67
2023-01-13T02:04:34.746Z,2.73
2023-01-13T02:07:03.505Z,2.81
2023-01-13T02:09:31.419Z,2.56
2023-01-13T02:12:17.395Z,2.40
2023-01-13T02:14:45.950Z,2.51
2023-01-13T02:17:22.359Z,2.50
2023-01-13T02:20:21.590Z,2.57
2023-01-13T02:22:54.965Z,2.58
2023-01-13T02:25:57.545Z,2.57
2023-01-13T02:29:08.743Z,2.58
2023-01-13T02:31:43.264Z,2.63
2023-01-13T02:34:23.064Z,2.54
2023-01-13T02:36:58.450Z,2.72
2023-01-13T02:39:28.867Z,2.70
2023-01-13T02:42:56.755Z,2.89
2023-01-13T02:45:31.597Z,2.80
2023-01-13T02:48:02.114Z,2.56
2023-01-13T02:50:35.534Z,2.80
2023-01-13T02:53:16.490Z,2.79
2023-01-13T02:55:49.953Z,2.67
2023-01-13T02:58:24.295Z,2.70
2023-01-13T03:00:52.479Z,2.69
2023-01-13T03:03:20.195Z,2.73
2023-01-13T03:05:51.719Z,2.83
2023-01-13T03:08:27.371Z,2.56
2023-01-13T03:11:13.051Z,2.64
2023-01-13T03:14:31.762Z,2.69
2023-01-13T03:17:37.657Z,2.68
2023-01-13T03:20:07.417Z,2.73
2023-01-13T03:22:45.569Z,2.84
2023-01-13T03:25:13.087Z,2.79
2023-01-13T03:27:53.048Z,2.79
2023-01-13T03:30:27.252Z,2.78
2023-01-13T03:33:27.993Z,2.93
2023-01-13T03:36:02.109Z,2.98
2023-01-13T03:38:39.939Z,3.02
2023-01-13T03:41:12.152Z,3.02
2023-01-13T03:44:08.575Z,2.87
2023-01-13T03:46:52.312Z,3.03
2023-01-13T03:49:24.538Z,2.85
2023-01-13T03:51:57.278Z,2.88
2023-01-13T03:54:28.467Z,2.89
2023-01-13T03:57:00.793Z,2.81
2023-01-13T03:59:33.499Z,2.86
2023-01-13T04:02:36.667Z,2.82
2023-01-13T04:05:09.365Z,2.84
2023-01-13T04:08:01.858Z,2.82
2023-01-13T04:10:40.211Z,2.94
2023-01-13T04:13:13.138Z,2.87
2023-01-13T04:15:44.514Z,2.77
2023-01-13T04:18:22.274Z,2.69
2023-01-13T04:20:53.161Z,2.74
2023-01-13T04:23:21.880Z,2.77
2023-01-13T04:25:50.739Z,2.79
2023-01-13T04:28:18.739Z,2.82
2023-01-13T04:30:46.603Z,2.81
2023-01-13T04:33:15.949Z,2.82
2023-01-13T04:35:45.134Z,2.88
2023-01-13T04:38:18.538Z,2.85
2023-01-13T04:40:46.718Z,2.82
2023-01-13T04:43:15.939Z,2.84
2023-01-13T04:45:43.655Z,2.86
2023-01-13T04:48:11.917Z,2.94
2023-01-13T04:50:39.683Z,2.81
2023-01-13T04:53:07.290Z,2.84
2023-01-13T04:55:35.883Z,2.78
2023-01-13T04:58:05.727Z,2.91
2023-01-13T05:00:33.445Z,2.85
2023-01-13T05:03:03.387Z,2.93
2023-01-13T05:05:31.036Z,2.95
2023-01-13T05:07:58.642Z,2.77
2023-01-13T05:10:27.505Z,2.74
2023-01-13T05:13:13.334Z,2.86
2023-01-13T05:16:00.938Z,2.83
2023-01-13T05:18:30.969Z,2.80
2023-01-13T05:20:58.705Z,2.86
2023-01-13T05:23:44.895Z,2.84
2023-01-13T05:26:12.504Z,2.88
2023-01-13T05:28:39.844Z,2.84
2023-01-13T05:31:07.278Z,2.83
2023-01-13T05:33:36.149Z,2.85
2023-01-13T05:36:03.986Z,2.89
2023-01-13T05:38:31.303Z,2.71
2023-01-13T05:41:18.864Z,2.72
2023-01-13T05:43:46.186Z,2.70
2023-01-13T05:46:15.048Z,2.77
2023-01-13T05:48:43.610Z,2.89
2023-01-13T05:51:13.095Z,3.02
2023-01-13T05:53:43.724Z,3.15
2023-01-13T05:56:11.649Z,2.92
2023-01-13T06:01:08.877Z,3.04
2023-01-13T06:03:36.941Z,3.11
2023-01-13T06:06:04.704Z,3.14
2023-01-13T06:08:32.819Z,3.05
2023-01-13T06:11:00.480Z,3.05
2023-01-13T06:13:28.261Z,3.17
2023-01-13T06:15:59.589Z,3.10
2023-01-13T06:18:28.355Z,3.08
2023-01-13T06:20:56.397Z,3.30
2023-01-13T06:26:05.845Z,3.23
2023-01-13T06:28:33.509Z,3.27
2023-01-13T06:31:04.466Z,3.26
2023-01-13T06:33:38.874Z,3.39
2023-01-13T06:36:14.152Z,3.58
2023-01-13T06:38:45.902Z,3.34
2023-01-13T06:41:13.932Z,3.28
2023-01-13T06:43:41.650Z,3.23
2023-01-13T06:46:08.986Z,3.23
2023-01-13T06:48:36.802Z,3.18
2023-01-13T06:51:05.054Z,3.21
2023-01-13T06:53:32.649Z,3.27
2023-01-13T06:56:00.318Z,3.28
2023-01-13T06:58:27.685Z,3.29
2023-01-13T07:00:55.117Z,3.27
2023-01-13T07:03:22.777Z,3.37
2023-01-13T07:05:56.499Z,3.47
2023-01-13T07:08:25.128Z,3.49
2023-01-13T07:10:53.248Z,3.60
2023-01-13T07:13:47.592Z,3.62
2023-01-13T07:16:15.426Z,3.58
2023-01-13T07:18:42.765Z,3.71
2023-01-13T07:21:13.388Z,3.68
2023-01-13T07:23:42.030Z,3.76
2023-01-13T07:26:10.185Z,3.59
2023-01-13T07:28:38.475Z,3.59
2023-01-13T07:31:14.389Z,3.30
2023-01-13T07:33:41.862Z,3.29
2023-01-13T07:38:40.065Z,3.52
2023-01-13T07:41:26.486Z,3.73
2023-01-13T07:43:54.353Z,3.65
2023-01-13T07:46:21.664Z,3.58
2023-01-13T07:48:49.310Z,3.75
2023-01-13T07:51:17.426Z,3.86
2023-01-13T07:53:44.990Z,3.92
2023-01-13T07:56:12.286Z,4.10
2023-01-13T07:58:40.305Z,4.24
2023-01-13T08:01:12.798Z,4.35
2023-01-13T08:03:41.204Z,4.59
2023-01-13T08:06:09.922Z,4.78
2023-01-13T08:08:38.257Z,4.83
2023-01-13T08:11:07.766Z,4.92
2023-01-13T08:13:35.387Z,5.00
2023-01-13T08:16:08.373Z,5.59
2023-01-13T08:18:37.654Z,5.80
2023-01-13T08:21:11.701Z,5.79
2023-01-13T08:23:40.360Z,6.08
2023-01-13T08:26:13.834Z,6.26
2023-01-13T08:28:41.853Z,6.31
2023-01-13T08:31:14.751Z,6.54
2023-01-13T08:33:42.789Z,6.48
2023-01-13T08:36:12.542Z,6.88
2023-01-13T08:38:41.290Z,6.77
2023-01-13T08:41:12.787Z,6.92
2023-01-13T08:43:40.189Z,6.97
2023-01-13T08:46:07.840Z,6.85
2023-01-13T08:48:35.732Z,7.38
2023-01-13T08:51:08.289Z,7.06
2023-01-13T08:53:36.368Z,6.90
2023-01-13T08:56:11.205Z,6.79
2023-01-13T08:58:39.257Z,6.53
2023-01-13T09:01:08.726Z,6.42
2023-01-13T09:03:36.254Z,6.31
2023-01-13T09:06:04.278Z,6.16
2023-01-13T09:08:31.863Z,6.34
2023-01-13T09:10:59.890Z,6.56
2023-01-13T09:13:27.749Z,6.47
2023-01-13T09:15:56.949Z,6.48
2023-01-13T09:18:24.528Z,6.47
2023-01-13T09:20:52.326Z,6.28
2023-01-13T09:23:20.187Z,6.23
2023-01-13T09:25:48.532Z,6.39
2023-01-13T09:28:16.250Z,6.71
2023-01-13T09:30:43.682Z,6.71
2023-01-13T09:33:29.443Z,6.55
2023-01-13T09:36:01.340Z,6.38
2023-01-13T09:38:28.892Z,6.49
2023-01-13T09:40:56.775Z,6.47
2023-01-13T09:43:53.705Z,6.24
2023-01-13T09:46:47.379Z,6.05
2023-01-13T09:49:31.370Z,5.95
2023-01-13T09:52:07.806Z,5.89
2023-01-13T09:54:43.393Z,5.86
2023-01-13T09:57:16.102Z,5.82
2023-01-13T09:59:44.401Z,5.60
2023-01-13T10:02:15.190Z,5.42
2023-01-13T10:04:42.945Z,5.44
2023-01-13T10:07:15.272Z,5.55
2023-01-13T10:09:52.811Z,5.54
2023-01-13T10:12:43.510Z,5.49
2023-01-13T10:15:17.013Z,5.62
2023-01-13T10:18:11.916Z,5.52
2023-01-13T10:21:15.245Z,5.60
2023-01-13T10:23:57.162Z,5.80
2023-01-13T10:26:44.367Z,5.55
2023-01-13T10:29:27.694Z,5.63
2023-01-13T10:31:56.980Z,5.52
2023-01-13T10:34:25.590Z,5.71
2023-01-13T10:37:03.247Z,5.28
2023-01-13T10:39:40.931Z,5.18
2023-01-13T10:42:17.353Z,5.44
2023-01-13T10:44:49.344Z,5.50
2023-01-13T10:47:27.222Z,5.39
2023-01-13T10:50:06.042Z,5.45
2023-01-13T10:52:38.549Z,5.50
2023-01-13T10:55:30.504Z,5.36
2023-01-13T10:57:58.171Z,5.43
2023-01-13T11:00:33.107Z,5.19
2023-01-13T11:03:12.923Z,5.21
2023-01-13T11:05:51.729Z,5.47
2023-01-13T11:08:31.502Z,5.35
2023-01-13T11:11:00.682Z,5.42
2023-01-13T11:14:02.627Z,5.29
2023-01-13T11:16:30.781Z,5.27
2023-01-13T11:19:13.527Z,5.29
2023-01-13T11:21:58.421Z,5.40
2023-01-13T11:24:45.011Z,5.42
2023-01-13T11:27:33.095Z,5.40
2023-01-13T11:30:33.269Z,5.40
2023-01-13T11:33:10.123Z,5.44
2023-01-13T11:36:06.267Z,5.44
2023-01-13T11:38:57.243Z,5.39
2023-01-13T11:41:37.827Z,5.42
2023-01-13T11:44:18.391Z,5.40
2023-01-13T11:46:50.382Z,5.53
2023-01-13T11:49:31.115Z,5.70
2023-01-13T11:52:18.687Z,5.62
2023-01-13T11:55:01.930Z,5.60
2023-01-13T11:57:57.432Z,5.67
2023-01-13T12:00:50.497Z,5.76
2023-01-13T12:03:35.876Z,5.51
2023-01-13T12:06:08.887Z,5.37
2023-01-13T12:08:52.972Z,5.30
2023-01-13T12:11:33.855Z,5.27
2023-01-13T12:14:25.016Z,5.02
2023-01-13T12:16:52.333Z,4.93
2023-01-13T12:19:29.288Z,5.26
2023-01-13T12:22:03.173Z,5.15
2023-01-13T12:24:40.959Z,5.32
2023-01-13T12:27:21.327Z,5.43
2023-01-13T12:29:52.328Z,5.41
2023-01-13T12:32:25.233Z,5.49
2023-01-13T12:35:17.336Z,5.26
2023-01-13T12:37:54.607Z,5.21
2023-01-13T12:40:41.717Z,5.46
2023-01-13T12:43:35.006Z,5.52
2023-01-13T12:46:24.682Z,5.44
2023-01-13T12:48:55.528Z,5.64
2023-01-13T12:51:25.371Z,5.74
2023-01-13T12:53:55.057Z,5.61
2023-01-13T12:56:36.482Z,5.58
2023-01-13T12:59:19.605Z,5.55
2023-01-13T13:01:49.475Z,5.71
2023-01-13T13:04:20.841Z,5.68
2023-01-13T13:07:26.799Z,5.71
2023-01-13T13:09:57.796Z,5.70
2023-01-13T13:12:50.114Z,5.86
2023-01-13T13:15:28.952Z,5.81
2023-01-13T13:17:59.783Z,5.85
2023-01-13T13:20:54.170Z,5.73
2023-01-13T13:23:53.229Z,5.88
2023-01-13T13:26:28.790Z,5.90
2023-01-13T13:29:24.339Z,5.76
2023-01-13T13:32:36.311Z,6.02
2023-01-13T13:35:43.389Z,5.91
2023-01-13T13:38:41.552Z,6.04
2023-01-13T13:41:37.288Z,5.96
2023-01-13T13:44:48.601Z,6.13
2023-01-13T13:47:16.460Z,6.07
2023-01-13T13:49:54.332Z,6.07
2023-01-13T13:52:32.069Z,6.10
2023-01-13T13:55:08.926Z,6.30
2023-01-13T13:57:42.714Z,6.31
2023-01-13T14:00:17.271Z,6.17
2023-01-13T14:03:19.649Z,6.01
2023-01-13T14:06:02.847Z,5.86
2023-01-13T14:08:34.062Z,5.89
2023-01-13T14:11:02.003Z,5.78
2023-01-13T14:13:31.825Z,5.61
2023-01-13T14:16:04.815Z,5.58
2023-01-13T14:18:45.868Z,5.58
2023-01-13T14:21:26.391Z,5.65
2023-01-13T14:23:56.785Z,5.59
2023-01-13T14:26:27.711Z,5.74
2023-01-13T14:28:56.819Z,5.88
2023-01-13T14:31:25.329Z,5.82
2023-01-13T14:33:55.903Z,5.78
2023-01-13T14:36:25.715Z,5.73
2023-01-13T14:39:05.535Z,5.73
2023-01-13T14:41:53.641Z,5.96
2023-01-13T14:44:32.426Z,5.82
2023-01-13T14:47:17.457Z,5.74
2023-01-13T14:49:57.099Z,5.82
2023-01-13T14:52:25.031Z,5.60
2023-01-13T14:55:04.907Z,5.61
2023-01-13T14:57:34.181Z,5.55
2023-01-13T15:00:13.859Z,5.45
2023-01-13T15:03:13.736Z,5.46
2023-01-13T15:05:52.555Z,5.44
2023-01-13T15:08:28.263Z,5.45
2023-01-13T15:11:02.315Z,5.34
2023-01-13T15:13:38.134Z,5.33
2023-01-13T15:16:13.619Z,5.33
2023-01-13T15:18:41.458Z,5.39
2023-01-13T15:21:09.683Z,5.44
2023-01-13T15:23:38.653Z,5.48
2023-01-13T15:26:23.055Z,5.54
2023-01-13T15:28:51.852Z,5.52
2023-01-13T15:31:19.756Z,5.42
2023-01-13T15:33:47.329Z,5.49
2023-01-13T15:36:27.934Z,5.43
2023-01-13T15:38:55.656Z,5.61
2023-01-13T15:41:42.811Z,5.59
2023-01-13T15:44:30.307Z,5.49
2023-01-13T15:47:00.732Z,5.43
2023-01-13T15:49:45.337Z,5.39
2023-01-13T15:52:23.638Z,5.38
2023-01-13T15:54:51.966Z,5.32
2023-01-13T15:57:28.501Z,5.33
2023-01-13T15:59:58.269Z,5.29
2023-01-13T16:02:26.945Z,5.27
2023-01-13T16:04:55.000Z,5.25
2023-01-13T16:07:24.633Z,5.37
2023-01-13T16:09:52.511Z,5.27
2023-01-13T16:12:20.461Z,5.20
2023-01-13T16:14:47.764Z,5.25
2023-01-13T16:17:21.895Z,5.33
2023-01-13T16:19:50.035Z,5.32
2023-01-13T16:22:18.736Z,5.25
2023-01-13T16:24:46.351Z,5.27
2023-01-13T16:27:17.695Z,5.15
2023-01-13T16:29:46.071Z,5.36
2023-01-13T16:32:14.833Z,5.34
2023-01-13T16:34:43.067Z,5.32
2023-01-13T16:37:26.291Z,5.13
2023-01-13T16:39:54.577Z,5.16
2023-01-13T16:42:22.176Z,5.32
2023-01-13T16:44:50.867Z,5.44
2023-01-13T16:47:19.129Z,5.38
2023-01-13T16:49:46.603Z,5.32
2023-01-13T16:52:14.259Z,5.32
2023-01-13T16:54:41.843Z,5.33
2023-01-13T16:57:13.410Z,5.25
2023-01-13T16:59:40.745Z,5.31
2023-01-13T17:02:16.075Z,5.29
2023-01-13T17:04:43.679Z,5.32
2023-01-13T17:07:17.230Z,5.26
2023-01-13T17:09:44.793Z,5.30
2023-01-13T17:12:12.550Z,5.46
2023-01-13T17:14:40.227Z,5.38
2023-01-13T17:17:19.919Z,5.37
2023-01-13T17:19:47.593Z,5.24
2023-01-13T17:22:15.144Z,5.24
2023-01-13T17:24:42.762Z,5.32
2023-01-13T17:27:10.463Z,5.27
2023-01-13T17:29:38.527Z,5.43
2023-01-13T17:32:06.110Z,5.50
2023-01-13T17:34:33.855Z,5.23
2023-01-13T17:37:01.205Z,5.21
2023-01-13T17:39:28.538Z,5.17
2023-01-13T17:41:56.146Z,5.02
2023-01-13T17:44:23.755Z,4.94
2023-01-13T17:46:51.505Z,5.13
2023-01-13T17:49:21.994Z,5.15
2023-01-13T17:51:51.239Z,5.21
2023-01-13T17:54:21.138Z,5.13
2023-01-13T17:56:48.481Z,5.11
2023-01-13T17:59:18.723Z,5.12
2023-01-13T18:01:46.994Z,5.21
2023-01-13T18:04:21.441Z,5.13
2023-01-13T18:06:49.341Z,5.18
2023-01-13T18:09:18.067Z,5.23
2023-01-13T18:11:47.207Z,5.26
2023-01-13T18:14:16.530Z,5.43
2023-01-13T18:16:44.379Z,5.51
2023-01-13T18:19:30.261Z,5.26
2023-01-13T18:22:16.536Z,5.10
2023-01-13T18:25:03.034Z,5.13
2023-01-13T18:27:38.226Z,5.12
2023-01-13T18:30:06.817Z,4.81
2023-01-13T18:32:34.987Z,4.92
2023-01-13T18:35:06.641Z,4.89
2023-01-13T18:37:42.410Z,4.76
2023-01-13T18:40:13.404Z,4.91
2023-01-13T18:42:58.439Z,5.27
2023-01-13T18:45:29.506Z,5.14
2023-01-13T18:48:00.585Z,5.07
2023-01-13T18:50:28.577Z,5.07
2023-01-13T18:52:56.856Z,5.02
2023-01-13T18:55:25.177Z,5.10
2023-01-13T18:57:53.395Z,5.15
2023-01-13T19:00:22.346Z,5.21
2023-01-13T19:05:35.370Z,5.09
2023-01-13T19:08:04.101Z,5.16
2023-01-13T19:10:32.804Z,4.96
2023-01-13T19:13:01.852Z,4.89
2023-01-13T19:15:29.664Z,5.00
2023-01-13T19:17:56.862Z,4.96
2023-01-13T19:20:24.331Z,5.04
2023-01-13T19:22:54.502Z,4.99
2023-01-13T19:25:21.995Z,4.97
2023-01-13T19:27:49.359Z,5.02
2023-01-13T19:30:17.600Z,5.06
2023-01-13T19:32:45.141Z,4.90
2023-01-13T19:35:13.291Z,4.94
2023-01-13T19:37:41.062Z,4.82
2023-01-13T19:40:09.791Z,4.93
2023-01-13T19:42:55.793Z,5.00
2023-01-13T19:45:35.313Z,4.91
2023-01-13T19:48:04.776Z,4.90
2023-01-13T19:50:35.947Z,4.96
2023-01-13T19:53:03.131Z,5.03
2023-01-13T19:55:32.022Z,4.96
2023-01-13T19:57:59.549Z,4.93
2023-01-13T20:00:26.686Z,4.96
2023-01-13T20:02:56.925Z,4.93
2023-01-13T20:05:26.133Z,5.00
2023-01-13T20:07:54.171Z,4.89
2023-01-13T20:10:22.573Z,4.83
2023-01-13T20:12:49.752Z,5.00
2023-01-13T20:15:17.545Z,5.05
2023-01-13T20:17:44.816Z,5.16
2023-01-13T20:20:12.215Z,5.02
2023-01-13T20:22:40.267Z,4.98
2023-01-13T20:25:07.834Z,5.10
2023-01-13T20:27:35.141Z,4.98
2023-01-13T20:30:02.901Z,4.95
2023-01-13T20:32:30.046Z,4.91
2023-01-13T20:34:57.455Z,4.84
2023-01-13T20:37:25.157Z,4.87
2023-01-13T20:39:52.336Z,4.92
2023-01-13T20:42:51.739Z,4.80
2023-01-13T20:45:21.710Z,4.76
2023-01-13T20:47:49.111Z,5.04
2023-01-13T20:50:16.575Z,4.97
2023-01-13T20:52:44.145Z,4.86
2023-01-13T20:55:12.066Z,4.89
2023-01-13T20:57:39.979Z,4.89
2023-01-13T21:00:08.044Z,4.79
2023-01-13T21:02:35.306Z,4.82
2023-01-13T21:05:02.489Z,4.84
2023-01-13T21:07:30.013Z,4.86
2023-01-13T21:09:57.988Z,5.02
2023-01-13T21:12:43.616Z,4.93
2023-01-13T21:15:17.619Z,4.91
2023-01-13T21:18:04.150Z,4.95
2023-01-13T21:20:36.348Z,4.97
2023-01-13T21:23:04.291Z,4.81
2023-01-13T21:25:35.155Z,4.82
2023-01-13T21:28:11.585Z,4.83
2023-01-13T21:30:39.608Z,4.73
2023-01-13T21:33:06.823Z,4.58
2023-01-13T21:35:37.276Z,4.72
2023-01-13T21:38:04.860Z,4.78
2023-01-13T21:40:32.054Z,4.66
2023-01-13T21:43:17.980Z,4.64
2023-01-13T21:46:05.568Z,4.82
2023-01-13T21:48:33.116Z,4.83
2023-01-13T21:51:01.506Z,4.96
2023-01-13T21:53:28.804Z,4.83
2023-01-13T21:55:56.297Z,4.80
2023-01-13T21:58:23.841Z,4.91
2023-01-13T22:00:51.010Z,4.91
2023-01-13T22:03:18.941Z,4.74
2023-01-13T22:05:46.593Z,4.61
2023-01-13T22:08:13.922Z,4.59
2023-01-13T22:10:58.098Z,4.62
2023-01-13T22:13:44.857Z,4.66
2023-01-13T22:16:12.533Z,4.64
2023-01-13T22:18:39.997Z,4.63
2023-01-13T22:21:07.311Z,4.59
2023-01-13T22:23:34.861Z,4.62
2023-01-13T22:26:05.814Z,4.60
2023-01-13T22:28:43.405Z,4.70
2023-01-13T22:31:12.376Z,4.62
2023-01-13T22:33:40.334Z,4.77
2023-01-13T22:36:08.627Z,4.68
2023-01-13T22:38:36.614Z,4.78
2023-01-13T22:41:06.722Z,4.59
2023-01-13T22:43:34.434Z,4.52
2023-01-13T22:46:07.083Z,4.41
2023-01-13T22:48:34.703Z,4.39
2023-01-13T22:51:30.652Z,4.21
2023-01-13T22:53:58.015Z,4.33
2023-01-13T22:56:26.147Z,4.46
2023-01-13T22:58:54.560Z,4.50
2023-01-13T23:01:22.590Z,4.26
2023-01-13T23:03:50.756Z,4.11
2023-01-13T23:06:18.644Z,4.05
2023-01-13T23:08:46.528Z,4.04
2023-01-13T23:11:15.317Z,4.23
2023-01-13T23:13:43.418Z,4.32
2023-01-13T23:16:12.147Z,4.26
2023-01-13T23:18:42.717Z,4.27
2023-01-13T23:21:12.065Z,4.42
2023-01-13T23:23:39.899Z,4.54
2023-01-13T23:26:07.753Z,4.62
2023-01-13T23:28:35.718Z,4.50
2023-01-13T23:31:07.531Z,4.45
2023-01-13T23:33:34.896Z,4.51
2023-01-13T23:36:04.221Z,4.52
2023-01-13T23:38:31.741Z,4.66
2023-01-13T23:40:59.411Z,4.56
2023-01-13T23:43:27.420Z,4.48
2023-01-13T23:46:05.284Z,4.39
2023-01-13T23:48:33.397Z,4.39
2023-01-13T23:51:01.140Z,4.43
2023-01-13T23:53:33.638Z,4.43
2023-01-13T23:56:01.979Z,4.37
2023-01-13T23:58:29.707Z,4.25
